createdAt,value
2019-05-29T00:01:52.165Z,71.58
2019-05-29T00:03:54.254Z,71.83
2019-05-29T00:05:56.627Z,72.06
2019-05-29T00:07:59.653Z,73.89
2019-05-29T00:10:02.349Z,71.80
2019-05-29T00:12:08.394Z,71.29
2019-05-29T00:14:22.587Z,70.72
2019-05-29T00:16:15.978Z,71.25
2019-05-29T00:18:18.674Z,70.79
2019-05-29T00:20:21.002Z,70.22
2019-05-29T00:22:23.024Z,72.09
2019-05-29T00:24:25.264Z,72.32
2019-05-29T00:26:27.917Z,72.46
2019-05-29T00:28:30.014Z,71.54
2019-05-29T00:30:32.164Z,70.54
2019-05-29T00:32:34.513Z,70.84
2019-05-29T00:34:37.291Z,71.10
2019-05-29T00:36:39.538Z,71.70
2019-05-29T00:38:41.825Z,72.37
2019-05-29T00:40:44.250Z,72.41
2019-05-29T00:42:46.455Z,72.12
2019-05-29T00:44:49.338Z,72.98
2019-05-29T00:46:51.417Z,73.02
2019-05-29T00:48:53.656Z,72.98
2019-05-29T00:50:57.526Z,73.73
2019-05-29T00:52:59.585Z,73.95
2019-05-29T00:55:01.811Z,73.90
2019-05-29T00:57:04.475Z,74.04
2019-05-29T00:59:06.651Z,73.92
2019-05-29T01:01:09.323Z,74.21
2019-05-29T01:03:11.719Z,74.22
2019-05-29T01:05:13.982Z,74.13
2019-05-29T01:07:16.370Z,74.41
2019-05-29T01:09:18.686Z,74.61
2019-05-29T01:11:20.996Z,74.21
2019-05-29T01:13:25.128Z,75.01
2019-05-29T01:15:27.848Z,74.58
2019-05-29T01:17:30.049Z,74.70
2019-05-29T01:19:34.248Z,74.61
2019-05-29T01:21:36.404Z,74.56
2019-05-29T01:23:38.462Z,75.56
2019-05-29T01:25:40.484Z,73.49
2019-05-29T01:27:43.294Z,74.01
2019-05-29T01:29:45.552Z,73.67
2019-05-29T01:31:47.596Z,74.47
2019-05-29T01:33:49.988Z,74.89
2019-05-29T01:35:51.923Z,74.08
2019-05-29T01:37:54.121Z,73.44
2019-05-29T01:39:56.161Z,71.55
2019-05-29T01:41:58.737Z,72.88
2019-05-29T01:44:00.969Z,74.42
2019-05-29T01:46:02.997Z,74.50
2019-05-29T01:48:05.469Z,74.17
2019-05-29T01:50:07.898Z,73.89
2019-05-29T01:52:09.572Z,74.85
2019-05-29T01:54:11.939Z,74.56
2019-05-29T01:56:14.157Z,75.11
2019-05-29T01:58:17.901Z,75.93
2019-05-29T02:00:21.950Z,75.82
2019-05-29T02:02:25.366Z,75.27
2019-05-29T02:04:28.158Z,75.14
2019-05-29T02:06:42.536Z,75.20
2019-05-29T02:08:44.663Z,75.54
2019-05-29T02:10:46.701Z,75.91
2019-05-29T02:12:49.280Z,76.48
2019-05-29T02:14:51.339Z,76.53
2019-05-29T02:16:53.539Z,75.91
2019-05-29T02:18:55.742Z,75.93
2019-05-29T02:20:57.852Z,75.70
2019-05-29T02:23:00.115Z,75.84
2019-05-29T02:25:02.310Z,75.90
2019-05-29T02:27:04.417Z,75.67
2019-05-29T02:29:06.605Z,75.10
2019-05-29T02:31:08.846Z,76.08
2019-05-29T02:33:11.058Z,76.90
2019-05-29T02:35:13.427Z,75.67
2019-05-29T02:37:16.124Z,76.89
2019-05-29T02:39:18.833Z,76.47
2019-05-29T02:41:24.127Z,77.04
2019-05-29T02:43:27.764Z,77.70
2019-05-29T02:45:51.607Z,78.13
2019-05-29T02:47:34.865Z,78.77
2019-05-29T02:49:37.106Z,78.62
2019-05-29T02:51:39.544Z,78.52
2019-05-29T02:53:41.487Z,79.19
2019-05-29T02:55:43.810Z,78.33
2019-05-29T02:57:45.936Z,78.74
2019-05-29T02:59:48.004Z,78.37
2019-05-29T03:01:50.402Z,78.88
2019-05-29T03:03:52.123Z,79.60
2019-05-29T03:05:54.748Z,78.91
2019-05-29T03:07:56.994Z,79.44
2019-05-29T03:09:58.740Z,79.77
2019-05-29T03:12:00.798Z,79.66
2019-05-29T03:14:03.522Z,79.78
2019-05-29T03:16:11.626Z,79.47
2019-05-29T03:18:11.192Z,80.57
2019-05-29T03:20:13.669Z,80.34
2019-05-29T03:22:15.778Z,80.50
2019-05-29T03:24:17.927Z,80.21
2019-05-29T03:26:24.449Z,80.47
2019-05-29T03:28:25.740Z,80.62
2019-05-29T03:30:31.707Z,80.85
2019-05-29T03:32:39.187Z,81.32
2019-05-29T03:34:42.347Z,81.23
2019-05-29T03:36:47.138Z,81.22
2019-05-29T03:38:45.020Z,81.50
2019-05-29T03:40:47.596Z,81.00
2019-05-29T03:42:50.920Z,82.17
2019-05-29T03:44:53.570Z,81.58
2019-05-29T03:46:55.273Z,81.58
2019-05-29T03:48:57.312Z,81.28
2019-05-29T03:50:59.856Z,81.34
2019-05-29T03:53:01.935Z,81.13
2019-05-29T03:55:04.347Z,81.41
2019-05-29T03:57:06.324Z,81.63
2019-05-29T03:59:08.366Z,81.41
2019-05-29T04:01:10.549Z,81.47
2019-05-29T04:03:12.916Z,81.40
2019-05-29T04:05:15.319Z,81.34
2019-05-29T04:07:17.378Z,81.35
2019-05-29T04:09:20.056Z,81.33
2019-05-29T04:11:22.419Z,80.98
2019-05-29T04:13:27.470Z,80.81
2019-05-29T04:15:35.708Z,81.24
2019-05-29T04:17:38.723Z,81.01
2019-05-29T04:19:44.720Z,80.53
2019-05-29T04:21:48.712Z,81.24
2019-05-29T04:23:52.595Z,80.06
2019-05-29T04:25:56.607Z,80.12
2019-05-29T04:28:00.863Z,79.64
2019-05-29T04:30:04.562Z,80.13
2019-05-29T04:32:06.642Z,80.17
2019-05-29T04:34:09.168Z,80.24
2019-05-29T04:36:11.286Z,79.90
2019-05-29T04:38:13.877Z,79.27
2019-05-29T04:40:16.181Z,79.15
2019-05-29T04:42:19.366Z,79.10
2019-05-29T04:44:21.714Z,79.20
2019-05-29T04:46:24.097Z,78.70
2019-05-29T04:48:29.423Z,79.24
2019-05-29T04:50:33.449Z,78.28
2019-05-29T04:52:37.848Z,77.48
2019-05-29T04:54:40.413Z,77.46
2019-05-29T04:56:42.478Z,77.08
2019-05-29T04:58:45.061Z,76.06
2019-05-29T05:00:58.685Z,77.20
2019-05-29T05:02:51.199Z,76.65
2019-05-29T05:04:54.016Z,76.88
2019-05-29T05:06:56.128Z,76.98
2019-05-29T05:08:58.334Z,76.88
2019-05-29T05:11:00.531Z,76.69
2019-05-29T05:13:02.837Z,74.36
2019-05-29T05:15:05.412Z,74.08
2019-05-29T05:17:07.521Z,73.37
2019-05-29T05:19:09.613Z,72.98
2019-05-29T05:21:11.845Z,72.74
2019-05-29T05:23:14.015Z,72.61
2019-05-29T05:25:16.164Z,71.58
2019-05-29T05:27:19.498Z,71.90
2019-05-29T05:29:22.159Z,70.67
2019-05-29T05:31:24.219Z,70.98
2019-05-29T05:33:26.254Z,71.33
2019-05-29T05:35:28.545Z,71.31
2019-05-29T05:37:30.682Z,71.04
2019-05-29T05:39:32.879Z,71.16
2019-05-29T05:43:37.648Z,71.42
2019-05-29T05:45:39.272Z,70.47
2019-05-29T05:47:53.578Z,70.29
2019-05-29T05:49:46.046Z,70.28
2019-05-29T05:51:48.163Z,70.02
2019-05-29T05:53:50.192Z,70.94
2019-05-29T05:55:52.406Z,69.79
2019-05-29T05:57:54.780Z,68.73
2019-05-29T05:59:56.810Z,67.61
2019-05-29T06:02:20.335Z,64.65
2019-05-29T06:04:22.953Z,64.07
2019-05-29T06:06:25.087Z,64.40
2019-05-29T06:08:27.228Z,62.08
2019-05-29T06:10:29.825Z,63.18
2019-05-29T06:12:32.231Z,62.53
2019-05-29T06:14:34.647Z,62.23
2019-05-29T06:16:38.654Z,62.25
2019-05-29T06:18:40.894Z,61.46
2019-05-29T06:20:43.328Z,61.20
2019-05-29T06:22:45.164Z,60.55
2019-05-29T06:24:48.377Z,60.24
2019-05-29T06:26:50.809Z,59.63
2019-05-29T06:28:52.886Z,59.11
2019-05-29T06:30:54.915Z,59.21
2019-05-29T06:32:58.335Z,59.17
2019-05-29T06:35:00.058Z,59.20
2019-05-29T06:37:02.239Z,59.22
2019-05-29T06:39:06.162Z,57.85
2019-05-29T06:41:08.189Z,58.79
2019-05-29T06:43:21.785Z,58.70
2019-05-29T06:45:31.697Z,58.62
2019-05-29T06:47:36.250Z,58.24
2019-05-29T06:49:40.037Z,58.72
2019-05-29T06:51:43.409Z,59.06
2019-05-29T06:53:45.728Z,59.45
2019-05-29T06:55:54.157Z,58.96
2019-05-29T06:57:52.255Z,58.88
2019-05-29T06:59:55.787Z,57.91
2019-05-29T07:01:57.887Z,57.79
2019-05-29T07:04:11.202Z,57.82
2019-05-29T07:06:04.238Z,58.10
2019-05-29T07:08:18.157Z,58.30
2019-05-29T07:10:10.574Z,58.04
2019-05-29T07:12:12.372Z,59.01
2019-05-29T07:14:14.623Z,58.83
2019-05-29T07:16:17.082Z,57.91
2019-05-29T07:18:18.721Z,58.05
2019-05-29T07:20:20.772Z,57.75
2019-05-29T07:22:25.428Z,57.61
2019-05-29T07:24:27.570Z,57.27
2019-05-29T07:26:29.682Z,56.92
2019-05-29T07:28:32.094Z,57.90
2019-05-29T07:30:34.190Z,57.61
2019-05-29T07:32:38.616Z,57.07
2019-05-29T07:34:52.565Z,57.05
2019-05-29T07:36:45.880Z,57.03
2019-05-29T07:39:02.279Z,56.92
2019-05-29T07:40:52.471Z,57.55
2019-05-29T07:42:56.568Z,56.56
2019-05-29T07:44:58.152Z,55.73
2019-05-29T07:47:01.091Z,55.48
2019-05-29T07:49:03.238Z,55.02
2019-05-29T07:51:07.383Z,55.21
2019-05-29T07:53:09.864Z,55.50
2019-05-29T07:55:12.198Z,55.00
2019-05-29T07:57:14.362Z,53.96
2019-05-29T07:59:16.642Z,54.27
2019-05-29T08:01:18.687Z,53.15
2019-05-29T08:03:20.839Z,52.99
2019-05-29T08:05:25.095Z,53.69
2019-05-29T08:07:27.230Z,52.95
2019-05-29T08:09:29.672Z,53.69
2019-05-29T08:11:32.087Z,52.34
2019-05-29T08:13:33.769Z,51.56
2019-05-29T08:15:52.891Z,51.78
2019-05-29T08:17:42.021Z,51.79
2019-05-29T08:20:00.563Z,51.98
2019-05-29T08:21:48.574Z,52.02
2019-05-29T08:23:50.932Z,51.78
2019-05-29T08:25:53.110Z,49.54
2019-05-29T08:27:57.232Z,49.65
2019-05-29T08:29:59.692Z,49.47
2019-05-29T08:32:01.410Z,48.33
2019-05-29T08:34:07.734Z,47.86
2019-05-29T08:36:10.240Z,48.24
2019-05-29T08:38:12.383Z,48.06
2019-05-29T08:40:15.859Z,47.75
2019-05-29T08:42:23.250Z,47.39
2019-05-29T08:44:23.032Z,46.43
2019-05-29T08:46:25.181Z,47.18
2019-05-29T08:48:27.945Z,46.62
2019-05-29T08:50:30.167Z,46.77
2019-05-29T08:52:32.530Z,46.58
2019-05-29T08:54:34.756Z,46.90
2019-05-29T08:56:37.010Z,44.79
2019-05-29T08:58:40.278Z,44.10
2019-05-29T09:00:47.296Z,45.07
2019-05-29T09:02:49.313Z,44.55
2019-05-29T09:04:53.058Z,44.13
2019-05-29T09:06:55.850Z,43.26
2019-05-29T09:08:57.876Z,43.71
2019-05-29T09:10:59.952Z,43.22
2019-05-29T09:13:05.107Z,42.47
2019-05-29T09:15:08.315Z,43.05
2019-05-29T09:17:11.938Z,45.51
2019-05-29T09:19:14.244Z,41.76
2019-05-29T09:21:18.064Z,41.84
2019-05-29T09:23:23.168Z,43.39
2019-05-29T09:25:25.869Z,40.67
2019-05-29T09:27:27.922Z,41.20
2019-05-29T09:29:30.252Z,41.08
2019-05-29T09:31:32.899Z,42.45
2019-05-29T09:33:35.717Z,40.75
2019-05-29T09:35:37.936Z,39.47
2019-05-29T09:37:40.173Z,39.47
2019-05-29T09:39:42.230Z,39.97
2019-05-29T09:41:44.365Z,41.12
2019-05-29T09:43:58.372Z,42.92
2019-05-29T09:45:50.668Z,41.63
2019-05-29T09:47:52.918Z,40.72
2019-05-29T09:49:55.069Z,42.53
2019-05-29T09:51:57.930Z,44.31
2019-05-29T09:54:01.413Z,45.38
2019-05-29T09:56:09.505Z,43.26
2019-05-29T09:58:11.797Z,42.14
2019-05-29T10:00:14.745Z,41.60
2019-05-29T10:02:17.211Z,43.25
2019-05-29T10:04:19.920Z,43.51
2019-05-29T10:06:22.113Z,44.54
2019-05-29T10:08:24.634Z,41.03
2019-05-29T10:10:27.062Z,40.77
2019-05-29T10:12:28.657Z,41.07
2019-05-29T10:14:31.098Z,42.09
2019-05-29T10:16:34.517Z,40.16
2019-05-29T10:18:37.111Z,39.87
2019-05-29T10:20:39.597Z,37.49
2019-05-29T10:22:41.986Z,38.71
2019-05-29T10:24:44.221Z,39.55
2019-05-29T10:26:46.663Z,38.70
2019-05-29T10:29:04.391Z,42.38
2019-05-29T10:30:57.482Z,42.38
2019-05-29T10:32:59.905Z,41.92
2019-05-29T10:35:02.669Z,40.51
2019-05-29T10:37:05.259Z,39.71
2019-05-29T10:39:12.538Z,38.96
2019-05-29T10:41:12.861Z,39.14
2019-05-29T10:43:30.921Z,40.76
2019-05-29T10:45:19.667Z,40.52
2019-05-29T10:47:21.795Z,39.06
2019-05-29T10:49:23.854Z,39.43
2019-05-29T10:51:26.376Z,39.36
2019-05-29T10:53:27.960Z,39.25
2019-05-29T10:55:31.127Z,39.29
2019-05-29T10:57:33.469Z,38.30
2019-05-29T10:59:35.801Z,38.74
2019-05-29T11:01:37.758Z,38.15
2019-05-29T11:03:40.155Z,40.11
2019-05-29T11:05:42.299Z,39.13
2019-05-29T11:07:45.709Z,40.46
2019-05-29T11:09:48.580Z,39.95
2019-05-29T11:11:50.863Z,39.97
2019-05-29T11:13:52.951Z,39.47
2019-05-29T11:15:55.289Z,39.14
2019-05-29T11:17:57.493Z,39.32
2019-05-29T11:19:59.633Z,39.87
2019-05-29T11:22:22.885Z,40.38
2019-05-29T11:24:07.428Z,40.92
2019-05-29T11:26:09.425Z,40.19
2019-05-29T11:28:11.860Z,40.89
2019-05-29T11:30:14.440Z,40.72
2019-05-29T11:32:16.476Z,41.61
2019-05-29T11:34:18.759Z,41.94
2019-05-29T11:36:20.810Z,41.19
2019-05-29T11:38:22.835Z,40.13
2019-05-29T11:40:25.354Z,39.84
2019-05-29T11:42:28.273Z,41.06
2019-05-29T11:44:30.817Z,41.25
2019-05-29T11:46:33.150Z,41.62
2019-05-29T11:48:35.235Z,40.98
2019-05-29T11:50:37.378Z,38.85
2019-05-29T11:52:42.982Z,39.50
2019-05-29T11:54:43.758Z,39.66
2019-05-29T11:56:45.806Z,41.60
2019-05-29T11:58:48.214Z,41.75
2019-05-29T12:00:50.713Z,40.28
2019-05-29T12:02:53.920Z,41.20
2019-05-29T12:04:58.104Z,41.54
2019-05-29T12:07:01.558Z,41.80
2019-05-29T12:09:32.633Z,40.09
2019-05-29T12:11:31.712Z,40.76
2019-05-29T12:13:33.706Z,39.81
2019-05-29T12:15:35.799Z,40.73
2019-05-29T12:17:38.631Z,40.42
2019-05-29T12:19:40.990Z,40.18
2019-05-29T12:21:43.343Z,40.49
2019-05-29T12:23:45.385Z,40.40
2019-05-29T12:25:47.573Z,40.91
2019-05-29T12:27:49.577Z,40.40
2019-05-29T12:29:52.617Z,40.08
2019-05-29T12:31:54.974Z,40.25
2019-05-29T12:34:00.111Z,39.87
2019-05-29T12:36:01.339Z,39.68
2019-05-29T12:38:03.639Z,41.39
2019-05-29T12:40:07.288Z,39.95
2019-05-29T12:42:09.827Z,40.66
2019-05-29T12:44:11.836Z,40.49
2019-05-29T12:46:13.937Z,40.01
2019-05-29T12:48:16.776Z,39.84
2019-05-29T12:50:21.646Z,39.25
2019-05-29T12:52:23.854Z,39.40
2019-05-29T12:54:26.091Z,40.40
2019-05-29T12:56:28.119Z,40.56
2019-05-29T12:58:30.187Z,39.56
2019-05-29T13:00:32.300Z,38.76
2019-05-29T13:02:34.458Z,38.24
2019-05-29T13:05:05.079Z,39.51
2019-05-29T13:06:40.616Z,40.21
2019-05-29T13:08:42.836Z,40.44
2019-05-29T13:10:44.983Z,39.63
2019-05-29T13:12:47.016Z,38.70
2019-05-29T13:14:49.029Z,38.40
2019-05-29T13:16:51.405Z,38.78
2019-05-29T13:18:54.845Z,39.14
2019-05-29T13:20:57.228Z,39.17
2019-05-29T13:23:00.424Z,39.33
2019-05-29T13:25:05.554Z,38.78
2019-05-29T13:27:07.746Z,38.71
2019-05-29T13:29:09.832Z,38.44
2019-05-29T13:31:11.895Z,38.54
2019-05-29T13:33:13.948Z,38.81
2019-05-29T13:35:16.062Z,39.52
2019-05-29T13:37:18.300Z,39.11
2019-05-29T13:39:20.373Z,38.99
2019-05-29T13:41:22.459Z,39.07
2019-05-29T13:43:24.698Z,38.91
2019-05-29T13:45:26.676Z,37.68
2019-05-29T13:47:28.917Z,36.38
2019-05-29T13:49:31.280Z,37.46
2019-05-29T13:51:33.403Z,37.76
2019-05-29T13:53:35.537Z,37.08
2019-05-29T13:55:38.804Z,35.72
2019-05-29T13:57:41.104Z,36.32
2019-05-29T13:59:44.476Z,38.43
2019-05-29T14:01:48.631Z,38.71
2019-05-29T14:03:50.855Z,38.77
2019-05-29T14:05:52.640Z,37.80
2019-05-29T14:07:54.946Z,38.40
2019-05-29T14:09:57.088Z,38.03
2019-05-29T14:11:59.140Z,37.35
2019-05-29T14:14:04.047Z,37.48
2019-05-29T14:16:06.829Z,37.41
2019-05-29T14:18:09.576Z,37.88
2019-05-29T14:20:13.152Z,38.16
2019-05-29T14:22:15.280Z,38.29
2019-05-29T14:24:28.675Z,38.64
2019-05-29T14:26:21.663Z,37.72
2019-05-29T14:28:23.941Z,36.82
2019-05-29T14:30:26.222Z,37.00
2019-05-29T14:32:28.823Z,36.08
2019-05-29T14:34:31.588Z,35.88
2019-05-29T14:36:33.656Z,35.46
2019-05-29T14:38:36.031Z,36.51
2019-05-29T14:40:37.609Z,36.96
2019-05-29T14:42:39.655Z,37.34
2019-05-29T14:44:41.935Z,37.54
2019-05-29T14:46:43.953Z,38.55
2019-05-29T14:48:46.031Z,38.30
2019-05-29T14:50:48.391Z,36.99
2019-05-29T14:52:50.656Z,37.52
2019-05-29T14:54:52.650Z,37.78
2019-05-29T14:56:55.241Z,38.07
2019-05-29T14:58:56.905Z,37.59
2019-05-29T15:00:59.020Z,38.04
2019-05-29T15:03:01.595Z,37.22
2019-05-29T15:05:05.511Z,37.67
2019-05-29T15:07:07.989Z,37.10
2019-05-29T15:09:11.866Z,37.35
2019-05-29T15:11:14.153Z,37.40
2019-05-29T15:13:16.141Z,37.71
2019-05-29T15:15:19.073Z,38.87
2019-05-29T15:17:21.409Z,39.83
2019-05-29T15:19:23.532Z,39.51
2019-05-29T15:21:25.899Z,38.93
2019-05-29T15:23:27.924Z,39.33
2019-05-29T15:25:29.930Z,39.66
2019-05-29T15:27:32.178Z,39.26
2019-05-29T15:29:34.217Z,38.43
2019-05-29T15:31:37.321Z,38.08
2019-05-29T15:33:39.888Z,37.57
2019-05-29T15:35:42.035Z,38.32
2019-05-29T15:37:44.021Z,38.44
2019-05-29T15:39:46.076Z,38.99
2019-05-29T15:41:48.213Z,38.25
2019-05-29T15:43:50.269Z,38.80
2019-05-29T15:45:53.604Z,38.89
2019-05-29T15:47:55.898Z,37.61
2019-05-29T15:49:58.157Z,38.24
2019-05-29T15:52:00.300Z,38.35
2019-05-29T15:54:02.566Z,38.96
2019-05-29T15:56:18.226Z,38.89
2019-05-29T15:58:09.158Z,39.43
2019-05-29T16:00:13.397Z,39.75
2019-05-29T16:02:15.865Z,39.57
2019-05-29T16:04:18.196Z,38.70
2019-05-29T16:06:20.261Z,39.62
2019-05-29T16:08:22.301Z,39.96
2019-05-29T16:10:24.607Z,39.59
2019-05-29T16:12:30.694Z,39.20
2019-05-29T16:14:30.596Z,40.20
2019-05-29T16:16:32.627Z,40.80
2019-05-29T16:18:35.256Z,39.85
2019-05-29T16:20:37.313Z,39.45
2019-05-29T16:22:40.026Z,39.56
2019-05-29T16:24:42.352Z,39.68
2019-05-29T16:26:44.394Z,40.39
2019-05-29T16:28:46.640Z,40.18
2019-05-29T16:30:48.704Z,40.14
2019-05-29T16:32:50.864Z,39.84
2019-05-29T16:34:53.112Z,40.46
2019-05-29T16:36:55.341Z,40.88
2019-05-29T16:38:57.607Z,40.61
2019-05-29T16:40:59.814Z,40.25
2019-05-29T16:43:01.869Z,39.72
2019-05-29T16:45:06.293Z,40.50
2019-05-29T16:47:08.458Z,41.61
2019-05-29T16:49:10.503Z,40.32
2019-05-29T16:51:12.630Z,41.04
2019-05-29T16:53:14.845Z,44.02
2019-05-29T16:55:17.539Z,46.74
2019-05-29T16:57:19.647Z,47.90
2019-05-29T16:59:24.702Z,48.53
2019-05-29T17:01:26.336Z,49.97
2019-05-29T17:03:27.951Z,50.22
2019-05-29T17:05:30.488Z,50.04
2019-05-29T17:07:32.212Z,50.01
2019-05-29T17:09:34.205Z,48.18
2019-05-29T17:11:37.088Z,47.88
2019-05-29T17:13:39.420Z,48.48
2019-05-29T17:15:41.637Z,48.81
2019-05-29T17:17:43.820Z,49.19
2019-05-29T17:19:47.104Z,49.57
2019-05-29T17:21:49.138Z,50.84
2019-05-29T17:23:51.565Z,52.31
2019-05-29T17:26:09.214Z,53.32
2019-05-29T17:27:58.201Z,53.67
2019-05-29T17:30:00.654Z,54.16
2019-05-29T17:32:02.822Z,54.38
2019-05-29T17:34:04.858Z,55.17
2019-05-29T17:36:07.185Z,55.68
2019-05-29T17:38:09.637Z,56.29
2019-05-29T17:40:11.666Z,56.80
2019-05-29T17:42:13.829Z,57.02
2019-05-29T17:44:15.886Z,56.87
2019-05-29T17:46:19.404Z,54.76
2019-05-29T17:48:22.091Z,54.72
2019-05-29T17:50:26.336Z,54.95
2019-05-29T17:52:29.709Z,55.29
2019-05-29T17:54:32.223Z,56.09
2019-05-29T17:56:36.954Z,56.90
2019-05-29T17:58:38.556Z,57.25
2019-05-29T18:00:41.038Z,57.56
2019-05-29T18:02:52.107Z,58.23
2019-05-29T18:04:49.346Z,58.35
2019-05-29T18:06:52.011Z,58.41
2019-05-29T18:08:54.272Z,58.42
2019-05-29T18:10:56.450Z,57.45
2019-05-29T18:12:58.640Z,58.10
2019-05-29T18:15:01.021Z,58.51
2019-05-29T18:17:04.278Z,59.34
2019-05-29T18:19:07.455Z,59.46
2019-05-29T18:21:09.636Z,59.47
2019-05-29T18:23:13.024Z,59.81
2019-05-29T18:25:15.368Z,59.76
2019-05-29T18:27:17.937Z,59.72
2019-05-29T18:29:20.353Z,59.97
2019-05-29T18:31:22.634Z,60.14
2019-05-29T18:33:24.979Z,60.19
2019-05-29T18:35:27.317Z,60.42
2019-05-29T18:37:29.712Z,60.51
2019-05-29T18:39:32.530Z,60.76
2019-05-29T18:41:34.860Z,61.25
2019-05-29T18:43:36.911Z,60.91
2019-05-29T18:45:38.951Z,60.92
2019-05-29T18:47:41.365Z,60.87
2019-05-29T18:49:43.468Z,60.59
2019-05-29T18:51:45.582Z,60.62
2019-05-29T18:56:03.097Z,60.12
2019-05-29T18:58:05.286Z,60.04
2019-05-29T19:00:07.782Z,59.66
2019-05-29T19:02:10.413Z,58.69
2019-05-29T19:04:12.617Z,56.40
2019-05-29T19:06:15.461Z,56.44
2019-05-29T19:08:17.816Z,56.33
2019-05-29T19:10:19.851Z,56.07
2019-05-29T19:12:23.613Z,55.91
2019-05-29T19:14:26.033Z,55.75
2019-05-29T19:16:28.386Z,56.41
2019-05-29T19:18:30.537Z,55.90
2019-05-29T19:20:32.783Z,55.23
2019-05-29T19:22:35.148Z,55.24
2019-05-29T19:24:37.181Z,55.44
2019-05-29T19:26:40.725Z,55.58
2019-05-29T19:28:42.764Z,55.85
2019-05-29T19:30:44.811Z,56.10
2019-05-29T19:32:47.876Z,56.43
2019-05-29T19:34:49.906Z,56.29
2019-05-29T19:36:52.037Z,56.54
2019-05-29T19:38:54.215Z,56.57
2019-05-29T19:40:56.358Z,56.62
2019-05-29T19:42:58.586Z,56.84
2019-05-29T19:45:00.902Z,56.74
2019-05-29T19:47:03.402Z,56.61
2019-05-29T19:49:04.997Z,56.62
2019-05-29T19:51:07.276Z,56.65
2019-05-29T19:53:09.627Z,56.67
2019-05-29T19:55:11.830Z,56.74
2019-05-29T19:57:14.116Z,56.23
2019-05-29T19:59:16.241Z,56.94
2019-05-29T20:01:30.533Z,57.51
2019-05-29T20:03:22.394Z,57.76
2019-05-29T20:05:24.546Z,57.26
2019-05-29T20:07:27.046Z,57.56
2019-05-29T20:09:31.201Z,57.41
2019-05-29T20:11:33.717Z,57.60
2019-05-29T20:13:35.893Z,57.71
2019-05-29T20:15:38.190Z,57.62
2019-05-29T20:17:40.256Z,58.08
2019-05-29T20:19:42.309Z,58.68
2019-05-29T20:21:44.761Z,58.40
2019-05-29T20:23:46.537Z,58.84
2019-05-29T20:25:48.648Z,58.87
2019-05-29T20:28:03.529Z,58.69
2019-05-29T20:29:54.734Z,59.21
2019-05-29T20:31:56.818Z,59.22
2019-05-29T20:33:59.806Z,59.59
2019-05-29T20:36:01.838Z,59.38
2019-05-29T20:38:06.520Z,60.00
2019-05-29T20:40:08.564Z,60.09
2019-05-29T20:42:10.538Z,60.33
2019-05-29T20:44:12.849Z,60.91
2019-05-29T20:46:15.048Z,60.91
2019-05-29T20:48:17.178Z,60.70
2019-05-29T20:50:19.578Z,61.06
2019-05-29T20:52:22.160Z,60.54
2019-05-29T20:54:24.445Z,60.41
2019-05-29T20:56:27.030Z,60.51
2019-05-29T20:58:28.757Z,60.28
2019-05-29T21:00:31.946Z,60.24
2019-05-29T21:02:34.246Z,60.92
2019-05-29T21:04:36.482Z,60.31
2019-05-29T21:06:38.684Z,60.66
2019-05-29T21:08:41.218Z,60.98
2019-05-29T21:10:43.615Z,60.59
2019-05-29T21:15:14.777Z,60.92
2019-05-29T21:17:17.100Z,60.39
2019-05-29T21:19:19.162Z,60.49
2019-05-29T21:21:21.372Z,60.72
2019-05-29T21:23:23.402Z,60.55
2019-05-29T21:25:25.431Z,60.94
2019-05-29T21:27:27.497Z,60.44
2019-05-29T21:29:29.557Z,60.54
2019-05-29T21:31:31.641Z,60.82
2019-05-29T21:33:35.818Z,60.94
2019-05-29T21:35:38.023Z,61.09
2019-05-29T21:37:40.382Z,60.65
2019-05-29T21:39:42.524Z,61.27
2019-05-29T21:41:44.758Z,61.23
2019-05-29T21:43:47.051Z,60.66
2019-05-29T21:45:49.240Z,60.72
2019-05-29T21:47:51.586Z,60.75
2019-05-29T21:49:53.656Z,60.61
2019-05-29T21:51:55.841Z,60.99
2019-05-29T21:53:57.846Z,61.02
2019-05-29T21:55:59.995Z,61.57
2019-05-29T21:58:02.332Z,61.11
2019-05-29T22:00:06.173Z,62.09
2019-05-29T22:02:10.789Z,62.32
2019-05-29T22:04:13.233Z,62.47
2019-05-29T22:06:15.257Z,62.28
2019-05-29T22:08:17.483Z,62.75
2019-05-29T22:10:19.721Z,63.35
2019-05-29T22:12:21.725Z,64.07
2019-05-29T22:14:24.217Z,63.13
2019-05-29T22:16:25.888Z,64.37
2019-05-29T22:18:27.879Z,64.20
2019-05-29T22:20:29.938Z,63.72
2019-05-29T22:22:32.223Z,64.56
2019-05-29T22:24:34.236Z,64.17
2019-05-29T22:26:36.482Z,63.97
2019-05-29T22:28:38.589Z,64.06
2019-05-29T22:30:40.601Z,64.03
2019-05-29T22:32:42.686Z,64.76
2019-05-29T22:34:44.974Z,64.89
2019-05-29T22:36:47.045Z,65.71
2019-05-29T22:38:49.494Z,66.02
2019-05-29T22:40:52.186Z,65.68
2019-05-29T22:42:55.845Z,65.93
2019-05-29T22:44:58.105Z,65.80
2019-05-29T22:47:00.228Z,65.46
2019-05-29T22:49:02.272Z,65.50
2019-05-29T22:51:04.715Z,65.48
2019-05-29T22:53:08.445Z,65.90
2019-05-29T22:55:10.325Z,66.29
2019-05-29T22:57:12.538Z,67.15
2019-05-29T22:59:30.915Z,67.41
2019-05-29T23:01:18.663Z,67.98
2019-05-29T23:03:21.785Z,68.75
2019-05-29T23:05:24.102Z,70.28
2019-05-29T23:07:26.316Z,72.31
2019-05-29T23:09:28.420Z,73.37
2019-05-29T23:11:30.608Z,73.96
2019-05-29T23:13:32.867Z,74.52
2019-05-29T23:15:35.140Z,75.07
2019-05-29T23:17:37.310Z,74.81
2019-05-29T23:19:39.353Z,74.59
2019-05-29T23:21:41.398Z,73.75
2019-05-29T23:23:43.583Z,73.69
2019-05-29T23:25:45.645Z,73.48
2019-05-29T23:27:47.909Z,73.99
2019-05-29T23:29:50.246Z,74.22
2019-05-29T23:31:52.826Z,74.68
2019-05-29T23:33:55.148Z,75.25
2019-05-29T23:35:57.205Z,75.96
2019-05-29T23:37:59.258Z,76.34
2019-05-29T23:40:01.366Z,76.41
2019-05-29T23:42:03.832Z,77.03
2019-05-29T23:44:06.129Z,78.24
2019-05-29T23:46:08.593Z,79.56
2019-05-29T23:48:10.259Z,80.66
2019-05-29T23:50:12.349Z,81.45
2019-05-29T23:52:14.611Z,82.46
2019-05-29T23:54:16.681Z,84.00
2019-05-29T23:56:18.786Z,84.66
2019-05-29T23:58:20.859Z,85.01
